createdAt,value
2019-05-12T00:01:48.192Z,9.00
2019-05-12T00:04:38.534Z,9.00
2019-05-12T00:07:28.649Z,9.00
2019-05-12T00:10:19.138Z,9.00
2019-05-12T00:13:08.608Z,8.90
2019-05-12T00:15:58.449Z,8.90
2019-05-12T00:18:48.364Z,8.80
2019-05-12T00:24:27.937Z,8.60
2019-05-12T00:27:19.640Z,8.60
2019-05-12T00:30:10.956Z,8.60
2019-05-12T00:32:59.927Z,8.50
2019-05-12T00:35:49.506Z,8.40
2019-05-12T00:38:39.126Z,8.50
2019-05-12T00:41:28.490Z,8.50
2019-05-12T00:44:18.498Z,8.50
2019-05-12T00:47:08.262Z,8.50
2019-05-12T00:49:58.378Z,8.50
2019-05-12T00:52:48.921Z,8.40
2019-05-12T00:55:38.584Z,8.40
2019-05-12T00:58:28.755Z,8.40
2019-05-12T01:01:18.363Z,8.40
2019-05-12T01:04:08.907Z,8.40
2019-05-12T01:06:58.231Z,8.40
2019-05-12T01:09:49.181Z,8.50
2019-05-12T01:12:38.214Z,8.40
2019-05-12T01:15:28.721Z,8.40
2019-05-12T01:18:18.441Z,8.30
2019-05-12T01:21:07.813Z,8.40
2019-05-12T01:24:03.109Z,8.30
2019-05-12T01:26:47.720Z,8.40
2019-05-12T01:29:38.533Z,8.40
2019-05-12T01:32:32.205Z,8.40
2019-05-12T01:35:21.717Z,8.50
2019-05-12T01:38:10.799Z,8.50
2019-05-12T01:40:59.701Z,8.50
2019-05-12T01:43:48.962Z,8.40
2019-05-12T01:46:38.627Z,8.40
2019-05-12T01:49:28.993Z,8.40
2019-05-12T01:52:18.063Z,8.40
2019-05-12T01:55:08.305Z,8.40
2019-05-12T01:57:57.969Z,8.40
2019-05-12T02:00:48.266Z,8.30
2019-05-12T02:03:37.671Z,8.30
2019-05-12T02:06:27.966Z,8.30
2019-05-12T02:09:18.775Z,8.30
2019-05-12T02:12:08.276Z,8.40
2019-05-12T02:14:58.883Z,8.30
2019-05-12T02:17:48.303Z,8.30
2019-05-12T02:20:38.101Z,8.30
2019-05-12T02:23:28.181Z,8.30
2019-05-12T02:26:18.887Z,8.30
2019-05-12T02:29:08.397Z,8.30
2019-05-12T02:31:59.000Z,8.40
2019-05-12T02:34:48.724Z,8.40
2019-05-12T02:37:38.010Z,8.40
2019-05-12T02:40:27.272Z,8.40
2019-05-12T02:43:15.946Z,8.40
2019-05-12T02:46:05.067Z,8.50
2019-05-12T02:48:54.800Z,8.50
2019-05-12T02:51:45.593Z,8.50
2019-05-12T02:54:50.751Z,8.50
2019-05-12T02:57:27.606Z,8.50
2019-05-12T03:00:16.934Z,8.50
2019-05-12T03:03:08.744Z,8.50
2019-05-12T03:06:00.729Z,8.60
2019-05-12T03:08:51.110Z,8.70
2019-05-12T03:11:44.763Z,8.70
2019-05-12T03:14:39.344Z,8.70
2019-05-12T03:17:25.178Z,8.70
2019-05-12T03:20:15.314Z,8.60
2019-05-12T03:23:05.988Z,8.70
2019-05-12T03:25:54.843Z,8.60
2019-05-12T03:28:44.715Z,8.50
2019-05-12T03:31:39.818Z,8.50
2019-05-12T03:34:29.374Z,8.40
2019-05-12T03:37:17.995Z,8.40
2019-05-12T03:40:07.339Z,8.40
2019-05-12T03:42:55.948Z,8.50
2019-05-12T03:45:45.594Z,8.40
2019-05-12T03:48:35.157Z,8.50
2019-05-12T03:51:25.274Z,8.50
2019-05-12T03:54:15.446Z,8.50
2019-05-12T03:57:04.590Z,8.50
2019-05-12T03:59:54.368Z,8.50
2019-05-12T04:02:45.410Z,8.40
2019-05-12T04:05:35.222Z,8.50
2019-05-12T04:08:24.739Z,8.50
2019-05-12T04:11:14.519Z,8.60
2019-05-12T04:14:05.563Z,8.50
2019-05-12T04:16:55.195Z,8.50
2019-05-12T04:19:44.935Z,8.50
2019-05-12T04:22:35.111Z,8.60
2019-05-12T04:25:25.255Z,8.60
2019-05-12T04:28:15.016Z,8.60
2019-05-12T04:31:05.513Z,8.60
2019-05-12T04:33:55.081Z,8.60
2019-05-12T04:36:45.114Z,8.60
2019-05-12T04:39:35.255Z,8.50
2019-05-12T04:42:25.295Z,8.50
2019-05-12T04:45:16.159Z,8.60
2019-05-12T04:48:06.540Z,8.60
2019-05-12T04:50:55.517Z,8.70
2019-05-12T04:53:45.170Z,8.80
2019-05-12T04:56:35.742Z,8.80
2019-05-12T04:59:25.551Z,8.80
2019-05-12T05:02:15.429Z,8.80
2019-05-12T05:05:05.491Z,8.80
2019-05-12T05:07:55.126Z,8.90
2019-05-12T05:10:44.558Z,9.00
2019-05-12T05:13:38.812Z,9.00
2019-05-12T05:16:24.962Z,9.00
2019-05-12T05:19:14.460Z,9.00
2019-05-12T05:22:04.415Z,9.10
2019-05-12T05:24:53.652Z,9.00
2019-05-12T05:27:44.355Z,9.00
2019-05-12T05:30:34.374Z,9.10
2019-05-12T05:33:24.027Z,9.10
2019-05-12T05:36:15.092Z,9.20
2019-05-12T05:39:06.380Z,9.10
2019-05-12T05:41:55.861Z,9.10
2019-05-12T05:44:45.410Z,9.00
2019-05-12T05:47:35.350Z,8.90
2019-05-12T05:50:29.347Z,8.80
2019-05-12T05:53:19.647Z,8.80
2019-05-12T05:56:06.005Z,8.80
2019-05-12T05:58:55.035Z,8.90
2019-05-12T06:01:47.161Z,9.10
2019-05-12T06:04:39.112Z,9.10
2019-05-12T06:07:34.959Z,9.20
2019-05-12T06:10:15.900Z,9.10
2019-05-12T06:13:06.178Z,9.10
2019-05-12T06:15:56.924Z,9.20
2019-05-12T06:18:46.670Z,9.30
2019-05-12T06:21:38.245Z,9.30
2019-05-12T06:24:26.664Z,9.30
2019-05-12T06:27:20.865Z,9.20
2019-05-12T06:30:07.438Z,9.20
2019-05-12T06:32:56.373Z,9.20
2019-05-12T06:35:45.674Z,9.20
2019-05-12T06:38:37.197Z,9.30
2019-05-12T06:41:25.894Z,9.30
2019-05-12T06:44:19.451Z,9.50
2019-05-12T06:47:08.355Z,9.60
2019-05-12T06:49:58.211Z,9.60
2019-05-12T06:52:49.089Z,9.60
2019-05-12T06:55:39.504Z,9.60
2019-05-12T06:58:32.072Z,9.60
2019-05-12T07:01:19.819Z,9.70
2019-05-12T07:04:10.192Z,9.80
2019-05-12T07:07:00.644Z,9.90
2019-05-12T07:09:54.139Z,10.00
2019-05-12T07:12:58.186Z,10.10
2019-05-12T07:15:35.576Z,10.30
2019-05-12T07:18:24.371Z,10.30
2019-05-12T07:21:15.525Z,10.40
2019-05-12T07:24:06.788Z,10.40
2019-05-12T07:27:06.835Z,10.40
2019-05-12T07:29:45.499Z,10.50
2019-05-12T07:32:35.324Z,10.60
2019-05-12T07:35:24.607Z,10.80
2019-05-12T07:38:20.751Z,10.90
2019-05-12T07:41:09.367Z,11.00
2019-05-12T07:44:00.747Z,11.20
2019-05-12T07:46:49.627Z,11.30
2019-05-12T07:49:39.480Z,11.40
2019-05-12T07:52:28.172Z,11.50
2019-05-12T07:55:17.556Z,11.60
2019-05-12T07:58:14.031Z,11.70
2019-05-12T08:01:02.342Z,11.80
2019-05-12T08:03:50.903Z,11.90
2019-05-12T08:06:41.701Z,11.90
2019-05-12T08:09:32.479Z,12.00
2019-05-12T08:12:21.255Z,11.90
2019-05-12T08:15:11.293Z,11.90
2019-05-12T08:18:00.607Z,11.90
2019-05-12T08:20:49.827Z,11.90
2019-05-12T08:23:38.809Z,11.90
2019-05-12T08:26:28.587Z,11.90
2019-05-12T08:29:21.620Z,12.10
2019-05-12T08:32:09.942Z,12.10
2019-05-12T08:34:59.585Z,12.10
2019-05-12T08:37:48.922Z,11.90
2019-05-12T08:40:45.015Z,11.70
2019-05-12T08:43:29.514Z,11.60
2019-05-12T08:46:18.692Z,11.50
2019-05-12T08:49:07.859Z,11.40
2019-05-12T08:52:00.107Z,11.40
2019-05-12T08:54:49.536Z,11.40
2019-05-12T08:57:40.640Z,11.50
2019-05-12T09:00:39.409Z,11.50
2019-05-12T09:03:30.527Z,11.50
2019-05-12T09:06:19.615Z,11.40
2019-05-12T09:09:09.329Z,11.50
2019-05-12T09:11:58.867Z,11.60
2019-05-12T09:14:48.622Z,11.70
2019-05-12T09:17:51.532Z,11.90
2019-05-12T09:20:28.231Z,12.10
2019-05-12T09:23:17.525Z,12.20
2019-05-12T09:26:07.511Z,12.50
2019-05-12T09:28:57.110Z,12.60
2019-05-12T09:31:46.348Z,12.60
2019-05-12T09:34:35.809Z,12.70
2019-05-12T09:37:25.172Z,12.80
2019-05-12T09:40:15.032Z,13.00
2019-05-12T09:43:10.465Z,13.00
2019-05-12T09:45:56.613Z,13.10
2019-05-12T09:48:52.071Z,13.20
2019-05-12T09:51:41.134Z,13.40
2019-05-12T09:54:35.428Z,13.50
2019-05-12T09:57:18.266Z,13.60
2019-05-12T10:00:08.233Z,13.50
2019-05-12T10:03:00.691Z,13.40
2019-05-12T10:05:48.468Z,13.30
2019-05-12T10:08:37.974Z,13.40
2019-05-12T10:11:27.440Z,13.30
2019-05-12T10:14:16.694Z,13.30
2019-05-12T10:17:06.099Z,13.10
2019-05-12T10:19:58.063Z,12.90
2019-05-12T10:22:45.408Z,12.90
2019-05-12T10:25:34.508Z,12.80
2019-05-12T10:28:24.010Z,12.80
2019-05-12T10:31:13.861Z,12.80
2019-05-12T10:34:24.025Z,13.00
2019-05-12T10:37:13.348Z,13.10
2019-05-12T10:40:03.722Z,13.10
2019-05-12T10:42:53.583Z,13.10
2019-05-12T10:45:44.180Z,13.40
2019-05-12T10:48:33.972Z,13.60
2019-05-12T10:51:23.965Z,13.70
2019-05-12T10:54:15.604Z,13.80
2019-05-12T10:57:04.938Z,14.00
2019-05-12T10:59:54.198Z,14.20
2019-05-12T11:02:43.338Z,14.20
2019-05-12T11:05:33.937Z,13.90
2019-05-12T11:08:24.532Z,13.90
2019-05-12T11:11:13.688Z,13.90
2019-05-12T11:14:03.908Z,14.00
2019-05-12T11:16:55.460Z,14.20
2019-05-12T11:19:47.237Z,14.30
2019-05-12T11:22:34.885Z,14.40
2019-05-12T11:25:24.623Z,14.20
2019-05-12T11:28:14.293Z,14.20
2019-05-12T11:31:03.379Z,14.40
2019-05-12T11:33:54.130Z,14.50
2019-05-12T11:36:43.868Z,14.60
2019-05-12T11:39:38.820Z,14.70
2019-05-12T11:42:23.950Z,14.90
2019-05-12T11:45:13.661Z,15.20
2019-05-12T11:48:05.823Z,15.30
2019-05-12T11:50:54.456Z,15.20
2019-05-12T11:53:44.543Z,15.20
2019-05-12T11:56:33.779Z,15.10
2019-05-12T11:59:23.868Z,15.00
2019-05-12T12:02:13.443Z,15.00
2019-05-12T12:05:03.372Z,15.00
2019-05-12T12:07:55.978Z,15.30
2019-05-12T12:10:43.439Z,15.60
2019-05-12T12:13:33.660Z,15.90
2019-05-12T12:16:23.845Z,16.00
2019-05-12T12:19:13.511Z,15.90
2019-05-12T12:22:04.277Z,15.80
2019-05-12T12:24:54.310Z,15.70
2019-05-12T12:27:44.280Z,15.60
2019-05-12T12:30:34.264Z,15.60
2019-05-12T12:33:23.558Z,15.50
2019-05-12T12:36:14.518Z,15.60
2019-05-12T12:39:04.170Z,15.50
2019-05-12T12:41:59.695Z,15.50
2019-05-12T12:44:44.805Z,15.70
2019-05-12T12:47:38.007Z,16.00
2019-05-12T12:50:26.395Z,16.00
2019-05-12T12:53:15.545Z,15.90
2019-05-12T12:56:04.942Z,16.00
2019-05-12T12:58:55.460Z,16.10
2019-05-12T13:01:44.350Z,16.20
2019-05-12T13:04:34.123Z,16.20
2019-05-12T13:07:24.145Z,16.20
2019-05-12T13:10:14.312Z,16.10
2019-05-12T13:13:04.470Z,16.30
2019-05-12T13:15:53.661Z,16.50
2019-05-12T13:18:43.514Z,16.50
2019-05-12T13:21:33.580Z,16.50
2019-05-12T13:24:23.135Z,16.50
2019-05-12T13:27:14.161Z,16.70
2019-05-12T13:30:05.657Z,17.00
2019-05-12T13:32:55.014Z,17.10
2019-05-12T13:35:44.310Z,17.10
2019-05-12T13:38:38.682Z,16.90
2019-05-12T13:41:25.209Z,16.70
2019-05-12T13:44:14.040Z,16.70
2019-05-12T13:47:03.559Z,16.90
2019-05-12T13:49:54.456Z,16.80
2019-05-12T13:52:43.834Z,16.70
2019-05-12T13:55:34.311Z,16.80
2019-05-12T13:58:28.307Z,16.70
2019-05-12T14:01:19.397Z,16.60
2019-05-12T14:04:05.648Z,16.50
2019-05-12T14:06:54.687Z,16.20
2019-05-12T14:09:43.795Z,16.00
2019-05-12T14:12:33.562Z,15.80
2019-05-12T14:15:24.955Z,15.70
2019-05-12T14:18:16.504Z,15.80
2019-05-12T14:21:04.268Z,15.90
2019-05-12T14:23:53.745Z,15.90
2019-05-12T14:26:45.364Z,16.00
2019-05-12T14:29:34.049Z,16.10
2019-05-12T14:32:24.450Z,16.20
2019-05-12T14:35:13.943Z,16.30
2019-05-12T14:38:03.816Z,16.40
2019-05-12T14:40:53.656Z,16.40
2019-05-12T14:43:47.275Z,16.50
2019-05-12T14:46:33.787Z,16.70
2019-05-12T14:49:26.395Z,16.60
2019-05-12T14:52:13.752Z,16.70
2019-05-12T14:55:03.459Z,16.80
2019-05-12T14:57:53.144Z,16.70
2019-05-12T15:00:44.601Z,16.70
2019-05-12T15:03:34.266Z,16.80
2019-05-12T15:06:25.725Z,17.00
2019-05-12T15:09:19.490Z,17.10
2019-05-12T15:12:05.019Z,17.20
2019-05-12T15:14:54.408Z,17.20
2019-05-12T15:17:44.688Z,17.40
2019-05-12T15:20:34.526Z,17.70
2019-05-12T15:23:32.166Z,17.70
2019-05-12T15:26:15.857Z,17.50
2019-05-12T15:29:12.990Z,17.30
2019-05-12T15:31:56.777Z,17.20
2019-05-12T15:34:46.387Z,17.20
2019-05-12T15:37:38.997Z,17.20
2019-05-12T15:40:26.519Z,17.10
2019-05-12T15:43:15.881Z,16.90
2019-05-12T15:46:05.390Z,16.90
2019-05-12T15:48:54.427Z,16.70
2019-05-12T15:51:51.215Z,16.70
2019-05-12T15:54:36.250Z,16.60
2019-05-12T15:57:28.878Z,16.60
2019-05-12T16:00:17.342Z,16.50
2019-05-12T16:03:07.133Z,16.30
2019-05-12T16:06:01.438Z,16.20
2019-05-12T16:08:47.242Z,16.10
2019-05-12T16:11:36.827Z,16.00
2019-05-12T16:14:30.473Z,16.00
2019-05-12T16:17:24.661Z,15.80
2019-05-12T16:20:07.844Z,15.60
2019-05-12T16:22:57.363Z,15.50
2019-05-12T16:25:46.717Z,15.50
2019-05-12T16:28:36.495Z,15.40
2019-05-12T16:31:25.994Z,15.50
2019-05-12T16:34:15.159Z,15.60
2019-05-12T16:37:04.264Z,15.60
2019-05-12T16:39:54.171Z,15.70
2019-05-12T16:42:51.098Z,15.80
2019-05-12T16:45:34.331Z,16.00
2019-05-12T16:48:30.366Z,16.00
2019-05-12T16:51:14.355Z,15.90
2019-05-12T16:54:03.672Z,15.70
2019-05-12T16:56:53.788Z,15.40
2019-05-12T16:59:43.312Z,15.20
2019-05-12T17:02:41.292Z,15.00
2019-05-12T17:05:24.059Z,14.90
2019-05-12T17:08:14.046Z,14.80
2019-05-12T17:11:23.219Z,14.70
2019-05-12T17:14:01.371Z,14.60
2019-05-12T17:16:46.748Z,14.60
2019-05-12T17:19:39.652Z,14.50
2019-05-12T17:22:29.302Z,14.70
2019-05-12T17:25:18.782Z,15.10
2019-05-12T17:28:08.231Z,15.50
2019-05-12T17:30:58.410Z,16.00
2019-05-12T17:33:47.805Z,16.40
2019-05-12T17:36:36.897Z,16.50
2019-05-12T17:39:29.329Z,16.70
2019-05-12T17:42:21.694Z,16.80
2019-05-12T17:45:15.853Z,16.80
2019-05-12T17:48:03.796Z,16.80
2019-05-12T17:50:53.931Z,16.70
2019-05-12T17:53:43.471Z,16.40
2019-05-12T17:56:38.569Z,16.20
2019-05-12T17:59:29.167Z,16.10
2019-05-12T18:02:17.407Z,16.10
2019-05-12T18:05:12.291Z,16.20
2019-05-12T18:07:57.847Z,16.30
2019-05-12T18:10:48.072Z,16.20
2019-05-12T18:13:39.946Z,16.20
2019-05-12T18:16:28.223Z,16.00
2019-05-12T18:19:19.585Z,15.80
2019-05-12T18:21:56.572Z,15.70
2019-05-12T18:24:24.061Z,15.80
2019-05-12T18:27:00.246Z,15.70
2019-05-12T18:29:26.791Z,15.80
2019-05-12T18:31:57.759Z,15.70
2019-05-12T18:34:28.284Z,15.70
2019-05-12T18:37:00.249Z,15.50
2019-05-12T18:39:31.029Z,15.20
2019-05-12T18:42:03.570Z,15.10
2019-05-12T18:44:34.190Z,15.00
2019-05-12T18:47:04.931Z,14.90
2019-05-12T18:49:54.584Z,14.90
2019-05-12T18:52:46.276Z,14.70
2019-05-12T18:55:40.122Z,14.50
2019-05-12T18:58:30.780Z,14.40
2019-05-12T19:01:16.393Z,14.10
2019-05-12T19:04:06.074Z,14.10
2019-05-12T19:06:55.900Z,14.00
2019-05-12T19:09:47.281Z,14.00
2019-05-12T19:12:32.367Z,14.00
2019-05-12T19:15:22.079Z,14.10
2019-05-12T19:18:15.564Z,14.10
2019-05-12T19:21:04.711Z,14.10
2019-05-12T19:23:54.330Z,14.10
2019-05-12T19:26:46.422Z,14.00
2019-05-12T19:29:39.061Z,14.00
2019-05-12T19:32:27.919Z,13.90
2019-05-12T19:35:20.277Z,13.90
2019-05-12T19:38:07.438Z,13.80
2019-05-12T19:41:00.725Z,13.80
2019-05-12T19:43:49.672Z,13.70
2019-05-12T19:46:39.862Z,13.70
2019-05-12T19:49:11.695Z,13.70
2019-05-12T19:52:03.390Z,13.70
2019-05-12T19:54:52.241Z,13.70
2019-05-12T19:57:44.137Z,13.60
2019-05-12T20:00:33.627Z,13.50
2019-05-12T20:03:24.171Z,13.40
2019-05-12T20:06:13.725Z,13.30
2019-05-12T20:09:06.508Z,13.20
2019-05-12T20:11:54.341Z,13.20
2019-05-12T20:14:44.436Z,13.10
2019-05-12T20:17:34.483Z,13.10
2019-05-12T20:20:26.585Z,13.00
2019-05-12T20:23:15.339Z,13.00
2019-05-12T20:26:04.666Z,12.90
2019-05-12T20:28:55.518Z,12.80
2019-05-12T20:31:48.602Z,12.80
2019-05-12T20:34:17.808Z,12.80
2019-05-12T20:36:48.126Z,12.70
2019-05-12T20:39:21.667Z,12.70
2019-05-12T20:41:54.566Z,12.60
2019-05-12T20:44:23.819Z,12.60
2019-05-12T20:46:56.252Z,12.50
2019-05-12T20:49:50.935Z,12.40
2019-05-12T20:52:39.549Z,12.40
2019-05-12T20:55:30.025Z,12.40
2019-05-12T20:58:16.901Z,12.30
2019-05-12T21:01:06.225Z,12.30
2019-05-12T21:03:55.769Z,12.30
2019-05-12T21:06:48.214Z,12.20
2019-05-12T21:09:35.825Z,12.20
2019-05-12T21:12:24.561Z,12.10
2019-05-12T21:15:20.288Z,12.10
2019-05-12T21:18:07.446Z,12.00
2019-05-12T21:20:55.618Z,12.00
2019-05-12T21:23:53.511Z,11.90
2019-05-12T21:26:37.906Z,11.70
2019-05-12T21:29:29.869Z,11.70
2019-05-12T21:32:17.064Z,11.60
2019-05-12T21:35:18.156Z,11.50
2019-05-12T21:37:45.732Z,11.40
2019-05-12T21:40:30.852Z,11.30
2019-05-12T21:43:21.303Z,11.20
2019-05-12T21:46:12.658Z,11.20
2019-05-12T21:49:10.199Z,11.10
2019-05-12T21:51:59.085Z,11.10
2019-05-12T21:54:44.049Z,11.00
2019-05-12T21:57:34.557Z,11.00
2019-05-12T22:00:31.287Z,10.90
2019-05-12T22:03:20.459Z,10.80
2019-05-12T22:06:19.037Z,10.70
2019-05-12T22:09:04.153Z,10.70
2019-05-12T22:11:55.860Z,10.60
2019-05-12T22:14:46.256Z,10.50
2019-05-12T22:17:54.350Z,10.50
2019-05-12T22:20:46.350Z,10.40
2019-05-12T22:23:35.077Z,10.30
2019-05-12T22:26:11.823Z,10.30
2019-05-12T22:29:01.263Z,10.20
2019-05-12T22:31:50.698Z,10.20
2019-05-12T22:34:42.126Z,10.10
2019-05-12T22:37:34.873Z,10.10
2019-05-12T22:40:20.954Z,10.10
2019-05-12T22:43:10.027Z,10.00
2019-05-12T22:45:59.233Z,9.90
2019-05-12T22:48:48.517Z,9.90
2019-05-12T22:51:38.156Z,9.80
2019-05-12T22:54:26.987Z,9.80
2019-05-12T22:57:15.630Z,9.70
2019-05-12T23:00:06.874Z,9.70
2019-05-12T23:03:00.594Z,9.70
2019-05-12T23:05:50.775Z,9.60
2019-05-12T23:08:38.762Z,9.60
2019-05-12T23:11:31.854Z,9.50
2019-05-12T23:14:22.088Z,9.50
2019-05-12T23:17:08.442Z,9.50
2019-05-12T23:19:43.108Z,9.40
2019-05-12T23:22:34.926Z,9.30
2019-05-12T23:25:21.637Z,9.30
2019-05-12T23:28:10.707Z,9.30
2019-05-12T23:30:59.853Z,9.20
2019-05-12T23:33:49.469Z,9.20
2019-05-12T23:36:39.296Z,9.10
2019-05-12T23:39:32.327Z,9.10
2019-05-12T23:42:18.698Z,9.00
2019-05-12T23:45:07.529Z,9.00
2019-05-12T23:47:56.359Z,9.00
2019-05-12T23:50:44.983Z,8.90
2019-05-12T23:53:34.213Z,8.90
2019-05-12T23:56:23.426Z,8.90
2019-05-12T23:59:13.542Z,8.90
